Time;durP1;ratioP1;P1;durP2;ratioP2;P2;SDS_P1;SDS_P2;PMS_P1;PMS_P2;Temp;Humidity;BMP_temperature;BMP_pressure;BME280_temperature;BME280_humidity;BME280_pressure;Samples;Min_cycle;Max_cycle;Signal;HPM_P1;HPM_P2
2023/10/23 00:02:10;;;;;;;;;11.67;9.00;;;;;12.61;75.48;100808.25;5037745;28;45290;-41
2023/10/23 00:04:36;;;;;;;;;13.00;10.33;;;;;12.60;75.37;100797.72;5036768;28;46998;-40
2023/10/23 00:07:01;;;;;;;;;9.00;7.67;;;;;12.57;75.16;100801.56;5037188;28;45379;-39
2023/10/23 00:09:26;;;;;;;;;12.67;9.67;;;;;12.56;75.43;100797.22;5037361;28;45298;-39
2023/10/23 00:11:52;;;;;;;;;11.67;7.67;;;;;12.56;75.23;100797.22;5019474;28;45598;-39
2023/10/23 00:14:17;;;;;;;;;10.67;9.00;;;;;12.54;75.05;100801.03;5036983;28;45407;-40
2023/10/23 00:16:42;;;;;;;;;16.00;8.67;;;;;12.51;75.45;100798.66;5036814;28;45579;-40
2023/10/23 00:19:07;;;;;;;;;9.67;8.00;;;;;12.48;74.94;100794.50;5037216;28;45233;-42
2023/10/23 00:21:33;;;;;;;;;8.67;8.00;;;;;12.43;75.34;100794.97;5037312;28;45281;-40
2023/10/23 00:23:58;;;;;;;;;13.00;9.67;;;;;12.38;75.51;100791.91;5036917;28;47782;-40
2023/10/23 00:26:24;;;;;;;;;12.33;7.00;;;;;12.37;76.22;100800.09;5035921;28;45462;-40
2023/10/23 00:28:50;;;;;;;;;10.33;7.67;;;;;12.34;75.69;100790.56;5037229;28;45381;-41
2023/10/23 00:31:15;;;;;;;;;16.33;11.33;;;;;12.39;75.40;100798.13;5037214;28;45388;-40
2023/10/23 00:33:41;;;;;;;;;6.00;2.67;;;;;12.31;75.52;100787.38;5036805;28;45600;-41
2023/10/23 00:36:07;;;;;;;;;16.33;9.00;;;;;12.34;74.95;100787.88;5036892;28;45457;-40
2023/10/23 00:38:32;;;;;;;;;9.67;7.67;;;;;12.35;75.55;100786.09;5036944;28;45412;-45
2023/10/23 00:40:57;;;;;;;;;8.67;7.00;;;;;11.93;74.90;100720.97;5037054;28;45415;-39
2023/10/23 00:43:24;;;;;;;;;11.67;7.00;;;;;12.31;75.43;100782.06;5036682;28;50927;-40
2023/10/23 00:45:49;;;;;;;;;13.00;9.33;;;;;12.29;75.72;100778.69;5036811;28;45547;-41
2023/10/23 00:48:15;;;;;;;;;14.00;9.00;;;;;12.28;75.94;100774.34;5036754;28;45470;-41
2023/10/23 00:50:40;;;;;;;;;13.00;8.33;;;;;12.28;75.96;100771.69;5037159;28;45425;-39
2023/10/23 00:53:06;;;;;;;;;10.33;7.00;;;;;12.29;75.71;100781.34;5036655;28;46905;-41
2023/10/23 00:55:31;;;;;;;;;10.33;9.00;;;;;12.28;75.32;100785.03;5036621;28;45332;-40
2023/10/23 00:57:57;;;;;;;;;9.33;8.00;;;;;12.23;75.71;100781.00;5036758;28;45674;-41
2023/10/23 01:00:22;;;;;;;;;9.00;7.00;;;;;12.23;76.04;100783.66;5036750;28;45337;-40
2023/10/23 01:02:50;;;;;;;;;14.00;11.33;;;;;12.23;76.17;100797.00;5036760;28;45340;-41
2023/10/23 01:05:15;;;;;;;;;11.33;9.00;;;;;12.21;76.36;100784.81;5036627;28;45398;-42
2023/10/23 01:07:40;;;;;;;;;13.33;9.00;;;;;12.15;75.94;100788.94;5036473;28;45421;-41
2023/10/23 01:10:06;;;;;;;;;11.67;11.33;;;;;12.12;76.20;100770.56;5036812;28;45375;-41
2023/10/23 01:12:32;;;;;;;;;16.00;10.00;;;;;12.09;76.13;100770.03;5036255;28;46471;-41
2023/10/23 01:14:57;;;;;;;;;14.33;13.00;;;;;12.11;75.90;100774.25;5018572;28;45319;-40
2023/10/23 01:17:23;;;;;;;;;11.00;11.00;;;;;12.09;75.58;100770.88;5036534;28;45662;-40
2023/10/23 01:19:48;;;;;;;;;14.00;10.00;;;;;12.08;75.86;100760.38;5036342;28;45507;-39
2023/10/23 01:22:13;;;;;;;;;15.33;7.00;;;;;12.05;76.41;100758.88;5036067;28;46322;-40
2023/10/23 01:24:43;;;;;;;;;9.67;9.00;;;;;11.98;75.74;100752.50;5035666;28;45455;-41
2023/10/23 01:27:08;;;;;;;;;17.33;13.00;;;;;12.00;75.77;100747.81;5036447;28;45826;-41
2023/10/23 01:29:33;;;;;;;;;12.33;8.00;;;;;11.91;75.96;100738.94;5035967;28;45424;-42
2023/10/23 01:31:59;;;;;;;;;9.67;9.67;;;;;11.93;76.67;100733.47;5036116;28;46190;-41
2023/10/23 01:34:24;;;;;;;;;11.00;8.00;;;;;11.94;76.73;100740.47;5035947;28;45243;-42
2023/10/23 01:36:49;;;;;;;;;16.67;11.00;;;;;11.94;76.15;100741.28;5036252;28;45422;-40
2023/10/23 01:39:15;;;;;;;;;12.00;7.67;;;;;11.93;76.57;100744.13;5018359;28;45546;-40
2023/10/23 01:41:40;;;;;;;;;11.67;7.67;;;;;11.91;76.28;100746.09;5035902;28;46143;-41
2023/10/23 01:44:06;;;;;;;;;9.33;7.00;;;;;11.94;76.63;100740.47;5017935;28;48164;-43
2023/10/23 01:46:31;;;;;;;;;7.00;7.00;;;;;11.95;76.77;100736.78;5036122;28;45458;-39
2023/10/23 01:48:56;;;;;;;;;12.00;9.00;;;;;11.95;76.29;100736.78;5036269;28;45423;-41
2023/10/23 01:51:22;;;;;;;;;8.00;7.67;;;;;11.94;76.16;100735.13;5036337;28;45443;-40
2023/10/23 01:53:47;;;;;;;;;10.33;8.33;;;;;11.92;76.02;100745.09;5036022;28;45350;-41
2023/10/23 01:56:12;;;;;;;;;12.67;12.00;;;;;11.88;76.54;100725.94;5036057;28;45415;-41
2023/10/23 01:58:38;;;;;;;;;15.33;9.67;;;;;11.84;75.55;100737.03;5036152;28;45384;-43
2023/10/23 02:01:03;;;;;;;;;3.67;3.67;;;;;11.80;76.39;100722.31;5035630;28;46547;-41
2023/10/23 02:03:30;;;;;;;;;11.33;9.33;;;;;11.74;76.60;100724.63;5035504;28;45460;-41
2023/10/23 02:05:56;;;;;;;;;9.00;7.00;;;;;11.73;76.76;100725.63;5015905;28;45380;-41
2023/10/23 02:08:23;;;;;;;;;10.00;4.33;;;;;11.70;76.77;100715.25;5016108;28;45269;-40
2023/10/23 02:10:50;;;;;;;;;6.00;6.00;;;;;11.71;76.56;100714.28;5015866;28;46538;-41
2023/10/23 02:13:15;;;;;;;;;9.00;6.33;;;;;11.70;76.88;100717.91;5015498;28;45354;-40
2023/10/23 02:15:41;;;;;;;;;7.67;7.67;;;;;11.69;77.00;100718.91;5015780;28;45354;-41
2023/10/23 02:18:07;;;;;;;;;7.67;4.00;;;;;11.69;76.74;100718.09;5015131;28;45466;-37
2023/10/23 02:20:32;;;;;;;;;8.00;7.00;;;;;11.63;76.83;100714.22;5015307;28;46139;-40
2023/10/23 02:22:58;;;;;;;;;11.00;9.33;;;;;11.69;76.53;100723.41;5015538;28;45479;-41
2023/10/23 02:25:24;;;;;;;;;6.33;6.33;;;;;11.66;77.09;100716.56;5015724;28;45267;-40
2023/10/23 02:27:49;;;;;;;;;7.00;7.00;;;;;11.64;76.44;100710.56;5015590;28;45285;-40
2023/10/23 02:30:14;;;;;;;;;8.67;5.33;;;;;11.66;76.97;100705.06;5015163;28;47149;-41
2023/10/23 02:32:40;;;;;;;;;7.33;4.33;;;;;11.66;76.50;100695.22;5015104;28;45412;-41
2023/10/23 02:35:05;;;;;;;;;7.33;6.00;;;;;11.68;76.42;100703.94;5015594;28;45375;-40
2023/10/23 02:37:31;;;;;;;;;6.67;3.33;;;;;11.67;76.88;100699.59;5018144;28;45301;-42
2023/10/23 02:39:56;;;;;;;;;6.67;6.67;;;;;11.66;76.37;100689.91;5018644;28;46994;-41
2023/10/23 02:42:22;;;;;;;;;7.33;6.00;;;;;11.69;76.34;100697.59;5018947;28;45338;-41
2023/10/23 02:44:47;;;;;;;;;9.00;7.00;;;;;11.68;76.96;100690.59;5019065;28;45310;-41
2023/10/23 02:47:12;;;;;;;;;10.67;6.67;;;;;11.68;76.78;100684.44;5018880;28;45415;-40
2023/10/23 02:49:38;;;;;;;;;6.33;5.33;;;;;11.72;76.74;100696.47;5018596;28;46481;-49
2023/10/23 02:52:03;;;;;;;;;6.00;6.00;;;;;11.74;76.44;100689.97;5018741;28;45325;-40
2023/10/23 02:54:29;;;;;;;;;8.33;5.67;;;;;11.72;76.49;100685.81;5018626;28;45325;-41
2023/10/23 02:56:55;;;;;;;;;3.33;3.33;;;;;11.76;76.30;100684.50;5018439;28;45607;-41
2023/10/23 02:59:21;;;;;;;;;6.00;6.00;;;;;11.77;76.18;100680.00;5018739;28;46282;-41
2023/10/23 03:01:46;;;;;;;;;7.00;4.33;;;;;11.69;76.61;100670.94;5018431;28;45419;-41
2023/10/23 03:04:12;;;;;;;;;5.33;3.33;;;;;11.65;76.29;100656.25;5017893;28;45429;-41
2023/10/23 03:06:37;;;;;;;;;11.00;6.67;;;;;11.77;76.40;100677.34;5018864;28;45446;-41
2023/10/23 03:09:03;;;;;;;;;7.00;4.33;;;;;11.77;75.48;100680.00;5018147;28;49163;-42
2023/10/23 03:11:28;;;;;;;;;6.00;3.67;;;;;11.67;75.40;100667.63;5018438;28;45379;-42
2023/10/23 03:13:54;;;;;;;;;3.67;3.67;;;;;11.75;75.40;100682.81;5018944;28;45344;-40
2023/10/23 03:16:19;;;;;;;;;6.00;4.33;;;;;11.73;75.72;100679.47;5018625;28;45396;-43
2023/10/23 03:18:44;;;;;;;;;7.00;4.00;;;;;11.70;75.92;100675.28;5018462;28;45834;-42
2023/10/23 03:21:10;;;;;;;;;5.33;4.67;;;;;11.70;75.77;100669.13;5018188;28;45376;-40
2023/10/23 03:23:35;;;;;;;;;4.67;4.67;;;;;11.72;75.71;100661.81;5018530;28;45516;-40
2023/10/23 03:26:02;;;;;;;;;9.33;4.67;;;;;11.73;75.48;100668.81;5018323;28;45524;-42
2023/10/23 03:28:27;;;;;;;;;6.00;6.00;;;;;11.71;75.49;100663.66;5018143;28;46273;-41
2023/10/23 03:30:53;;;;;;;;;7.33;4.67;;;;;11.67;75.80;100650.78;5017939;28;45341;-41
2023/10/23 03:33:18;;;;;;;;;4.00;4.00;;;;;11.71;75.42;100655.66;5018294;28;45397;-42
2023/10/23 03:35:44;;;;;;;;;4.33;1.67;;;;;11.68;75.49;100650.63;5018572;28;45304;-41
2023/10/23 03:38:09;;;;;;;;;3.00;2.00;;;;;11.68;75.45;100653.31;5017972;28;45440;-42
2023/10/23 03:40:34;;;;;;;;;3.33;3.00;;;;;11.68;75.22;100652.47;5018287;28;45289;-42
2023/10/23 03:43:00;;;;;;;;;3.00;3.00;;;;;11.66;75.01;100651.78;5018482;28;45305;-41
2023/10/23 03:45:25;;;;;;;;;7.00;5.33;;;;;11.62;74.96;100645.06;5018579;28;45223;-41
2023/10/23 03:47:50;;;;;;;;;3.00;3.00;;;;;11.61;75.20;100646.06;5017526;28;46087;-41
2023/10/23 03:50:16;;;;;;;;;3.00;2.00;;;;;11.62;75.60;100645.91;4999772;28;45299;-41
2023/10/23 03:52:41;;;;;;;;;6.33;3.67;;;;;11.61;75.59;100640.75;5018190;28;45401;-41
2023/10/23 03:55:08;;;;;;;;;3.00;3.00;;;;;11.61;75.67;100635.41;5018186;28;45451;-43
2023/10/23 03:57:33;;;;;;;;;3.00;3.00;;;;;11.57;75.37;100624.22;5017560;28;46688;-40
2023/10/23 03:59:58;;;;;;;;;8.00;4.67;;;;;11.52;74.99;100612.38;5017429;28;45467;-42
2023/10/23 04:02:24;;;;;;;;;4.33;2.33;;;;;11.60;75.26;100625.75;5017694;28;45345;-41
2023/10/23 04:04:49;;;;;;;;;2.67;2.67;;;;;11.57;74.92;100621.56;5017746;28;45586;-41
2023/10/23 04:07:14;;;;;;;;;2.00;2.00;;;;;11.52;75.21;100615.88;4999551;28;46174;-42
2023/10/23 04:09:40;;;;;;;;;3.67;3.67;;;;;11.49;75.23;100603.69;5017129;28;45445;-41
2023/10/23 04:12:05;;;;;;;;;6.00;3.00;;;;;11.54;74.80;100607.72;5017510;28;45408;-42
2023/10/23 04:14:31;;;;;;;;;7.67;2.67;;;;;11.53;75.03;100606.88;5017547;28;45475;-41
2023/10/23 04:16:56;;;;;;;;;3.00;3.00;;;;;11.53;75.44;100606.88;5017151;28;46949;-40
2023/10/23 04:19:22;;;;;;;;;6.00;2.00;;;;;11.53;75.30;100604.22;5017451;28;45218;-41
2023/10/23 04:21:47;;;;;;;;;6.33;2.33;;;;;11.53;75.26;100604.22;5017274;28;45308;-40
2023/10/23 04:24:13;;;;;;;;;3.00;3.00;;;;;11.49;75.15;100602.88;5017276;28;45387;-44
2023/10/23 04:26:38;;;;;;;;;6.33;2.00;;;;;11.51;75.11;100605.38;5016765;28;46209;-40
2023/10/23 04:29:04;;;;;;;;;4.67;3.00;;;;;11.52;75.14;100597.22;5016690;28;45424;-42
2023/10/23 04:31:30;;;;;;;;;4.67;3.67;;;;;11.55;75.25;100599.59;5017098;28;45463;-43
2023/10/23 04:33:55;;;;;;;;;7.00;3.00;;;;;11.56;74.89;100603.09;5017236;28;45362;-41
2023/10/23 04:36:21;;;;;;;;;2.00;2.00;;;;;11.55;74.96;100596.09;5017318;28;47151;-40
2023/10/23 04:38:47;;;;;;;;;2.67;2.67;;;;;11.55;75.11;100602.25;5016961;28;45513;-41
2023/10/23 04:41:12;;;;;;;;;4.67;4.67;;;;;11.58;75.18;100614.41;5017388;28;45439;-41
2023/10/23 04:43:38;;;;;;;;;6.33;3.00;;;;;11.56;74.99;100606.59;5017172;28;45480;-43
2023/10/23 04:46:03;;;;;;;;;1.00;0.00;;;;;11.51;74.78;100598.22;5016545;28;46200;-42
2023/10/23 04:48:28;;;;;;;;;2.00;2.00;;;;;11.50;75.01;100596.53;5016891;28;45472;-41
2023/10/23 04:51:02;;;;;;;;;3.00;3.00;;;;;11.51;74.72;100589.41;5017015;28;45315;-41
2023/10/23 04:53:27;;;;;;;;;2.00;2.00;;;;;11.49;75.04;100595.69;5016600;28;45341;-40
2023/10/23 04:55:54;;;;;;;;;7.33;2.00;;;;;11.41;75.19;100585.00;5016795;28;45277;-41
2023/10/23 04:58:19;;;;;;;;;2.00;2.00;;;;;11.43;75.54;100583.03;5016237;28;45368;-41
2023/10/23 05:00:45;;;;;;;;;2.67;2.67;;;;;11.45;74.97;100581.03;5016324;28;45293;-41
2023/10/23 05:03:10;;;;;;;;;3.33;3.00;;;;;11.45;75.34;100572.19;5016823;28;45408;-42
2023/10/23 05:05:36;;;;;;;;;5.67;5.00;;;;;11.39;74.86;100565.69;5033779;28;46276;-41
2023/10/23 05:08:03;;;;;;;;;3.00;2.67;;;;;11.35;75.12;100548.34;5018664;28;45439;-42
2023/10/23 05:10:29;;;;;;;;;5.67;3.00;;;;;11.44;75.37;100555.38;5036542;28;45433;-40
2023/10/23 05:12:54;;;;;;;;;2.50;2.00;;;;;11.44;74.96;100546.56;5036894;28;45664;-42
2023/10/23 05:15:19;;;;;;;;;3.00;2.67;;;;;11.46;75.48;100548.09;5036496;28;45411;-42
2023/10/23 05:17:45;;;;;;;;;3.00;3.00;;;;;11.45;75.01;100541.06;5036389;28;45668;-39
2023/10/23 05:20:10;;;;;;;;;3.00;2.00;;;;;11.45;75.14;100529.59;5036203;28;45320;-40
2023/10/23 05:22:36;;;;;;;;;7.33;4.00;;;;;11.49;75.15;100539.75;5036433;28;45423;-39
2023/10/23 05:25:01;;;;;;;;;2.00;2.00;;;;;11.50;74.77;100527.28;5036007;28;47128;-41
2023/10/23 05:27:26;;;;;;;;;4.00;2.00;;;;;11.52;75.26;100525.31;5018417;28;45419;-41
2023/10/23 05:29:52;;;;;;;;;4.00;3.00;;;;;11.55;74.67;100529.50;5036288;28;45387;-40
2023/10/23 05:32:17;;;;;;;;;2.33;2.33;;;;;11.56;75.17;100524.00;5036105;28;45340;-41
2023/10/23 05:34:45;;;;;;;;;3.00;3.00;;;;;11.56;74.88;100521.34;5035996;28;46070;-41
2023/10/23 05:37:11;;;;;;;;;4.33;2.33;;;;;11.60;74.93;100519.19;5036100;28;45466;-41
2023/10/23 05:39:37;;;;;;;;;3.00;1.33;;;;;11.58;74.60;100514.00;5036058;28;45466;-41
2023/10/23 05:42:03;;;;;;;;;3.67;3.67;;;;;11.65;74.89;100517.72;5036195;28;45449;-40
2023/10/23 05:44:28;;;;;;;;;4.00;2.00;;;;;11.66;74.27;100515.88;5035795;28;47129;-39
2023/10/23 05:46:53;;;;;;;;;1.33;1.33;;;;;11.69;74.26;100502.25;5035837;28;45328;-41
2023/10/23 05:49:19;;;;;;;;;7.00;3.00;;;;;11.73;74.16;100500.94;5035984;28;45716;-40
2023/10/23 05:51:44;;;;;;;;;2.33;1.00;;;;;11.75;73.87;100498.94;5036048;28;45362;-40
2023/10/23 05:54:10;;;;;;;;;1.33;1.33;;;;;11.78;74.33;100500.44;5035543;28;45514;-40
2023/10/23 05:56:36;;;;;;;;;1.67;1.67;;;;;11.81;74.10;100497.47;5035677;28;45376;-40
2023/10/23 05:59:02;;;;;;;;;4.33;4.33;;;;;11.86;73.80;100497.84;5035824;28;45373;-42
2023/10/23 06:01:27;;;;;;;;;7.33;3.00;;;;;11.71;73.82;100477.13;5035994;28;45574;-39
2023/10/23 06:03:53;;;;;;;;;4.00;3.00;;;;;11.88;73.99;100494.03;5031194;28;45828;-44
2023/10/23 06:06:18;;;;;;;;;2.00;2.00;;;;;11.90;73.92;100494.69;5015921;28;45360;-41
2023/10/23 06:08:44;;;;;;;;;17.00;14.00;;;;;11.93;73.81;100493.56;5015758;28;45657;-42
2023/10/23 06:11:11;;;;;;;;;74.75;54.25;;;;;11.95;73.65;100486.22;5017850;28;45416;-40
2023/10/23 06:13:36;;;;;;;;;2.33;2.33;;;;;11.96;73.33;100498.53;5019092;28;47400;-41
2023/10/23 06:16:04;;;;;;;;;2.67;2.67;;;;;11.93;73.34;100481.06;5018843;28;45306;-40
2023/10/23 06:18:38;;;;;;;;;4.33;2.00;;;;;11.98;73.24;100484.06;5019079;28;45335;-41
2023/10/23 06:21:05;;;;;;;;;6.00;3.33;;;;;12.01;73.33;100482.06;5019181;28;45257;-42
2023/10/23 06:23:40;;;;;;;;;2.33;2.33;;;;;11.99;73.09;100476.91;5018574;28;46020;-41
2023/10/23 06:26:07;;;;;;;;;1.33;1.33;;;;;12.01;72.93;100482.91;5018909;28;45473;-40
2023/10/23 06:28:33;;;;;;;;;6.00;2.33;;;;;12.00;73.07;100481.22;5018205;28;45382;-40
2023/10/23 06:31:10;;;;;;;;;4.67;1.33;;;;;11.99;73.54;100487.56;5019341;28;45464;-42
2023/10/23 06:33:38;;;;;;;;;2.00;2.00;;;;;11.99;73.06;100476.91;5018743;28;45549;-39
2023/10/23 06:36:05;;;;;;;;;4.00;3.67;;;;;11.99;73.05;100476.91;5018813;28;45252;-41
2023/10/23 06:38:32;;;;;;;;;4.33;2.00;;;;;11.97;73.51;100469.06;5018914;28;45516;-41
2023/10/23 06:41:07;;;;;;;;;7.67;4.00;;;;;11.98;73.73;100465.41;5018930;28;45440;-43
2023/10/23 06:43:34;;;;;;;;;3.33;2.00;;;;;12.00;73.35;100470.56;5018647;28;46229;-40
2023/10/23 06:45:59;;;;;;;;;3.00;1.67;;;;;12.02;72.89;100471.25;5018692;28;45422;-41
2023/10/23 06:48:24;;;;;;;;;2.00;2.00;;;;;12.03;72.75;100470.25;5018789;28;45540;-41
2023/10/23 06:50:50;;;;;;;;;24.33;20.00;;;;;12.06;73.29;100466.44;5018821;28;45449;-41
2023/10/23 06:53:15;;;;;;;;;3.33;2.67;;;;;12.12;72.81;100468.44;5018771;28;45355;-40
2023/10/23 06:55:51;;;;;;;;;6.00;3.00;;;;;12.15;72.69;100462.78;5018732;28;45317;-41
2023/10/23 06:58:19;;;;;;;;;3.67;3.33;;;;;12.18;72.79;100457.97;5018944;28;45442;-42
2023/10/23 07:00:45;;;;;;;;;4.67;2.00;;;;;12.18;72.50;100457.97;5017988;28;45300;-40
2023/10/23 07:03:10;;;;;;;;;4.00;2.00;;;;;12.23;72.39;100457.47;5018338;28;45942;-41
2023/10/23 07:05:36;;;;;;;;;1.33;1.33;;;;;12.23;71.63;100458.28;5035671;28;45223;-41
2023/10/23 07:08:01;;;;;;;;;1.00;1.00;;;;;12.22;72.03;100461.13;5038442;28;45355;-39
2023/10/23 07:10:26;;;;;;;;;6.00;2.00;;;;;12.27;71.85;100465.97;5020827;28;45475;-41
2023/10/23 07:12:52;;;;;;;;;6.67;3.00;;;;;12.29;72.04;100470.13;5038093;28;45529;-40
2023/10/23 07:15:17;;;;;;;;;4.33;2.67;;;;;12.22;71.73;100459.31;5038462;28;45378;-42
2023/10/23 07:17:43;;;;;;;;;3.33;2.00;;;;;12.32;71.92;100461.81;5038143;28;45438;-41
2023/10/23 07:20:08;;;;;;;;;5.00;1.00;;;;;12.33;71.45;100462.63;5038581;28;45381;-41
2023/10/23 07:22:34;;;;;;;;;7.00;2.67;;;;;12.34;72.20;100466.97;5037302;28;46185;-40
2023/10/23 07:25:02;;;;;;;;;4.00;2.67;;;;;12.37;72.03;100459.47;5037896;28;47389;-41
2023/10/23 07:27:28;;;;;;;;;3.00;1.00;;;;;12.39;71.73;100452.16;5038245;28;45354;-41
2023/10/23 07:29:53;;;;;;;;;4.33;1.67;;;;;12.46;71.94;100454.97;5038242;28;45324;-42
2023/10/23 07:32:19;;;;;;;;;3.33;2.00;;;;;12.50;71.84;100456.31;5037995;28;45397;-42
2023/10/23 07:34:44;;;;;;;;;4.67;2.00;;;;;12.46;71.50;100452.31;5038046;28;45360;-42
2023/10/23 07:37:12;;;;;;;;;3.67;3.33;;;;;12.45;72.00;100446.13;5037422;28;45430;-42
2023/10/23 07:39:37;;;;;;;;;3.00;3.00;;;;;12.48;71.69;100440.47;5038272;28;45371;-43
2023/10/23 07:42:03;;;;;;;;;4.67;3.00;;;;;12.50;71.83;100429.63;5037608;28;46129;-42
2023/10/23 07:44:28;;;;;;;;;4.67;3.67;;;;;12.49;71.39;100428.81;5037900;28;45375;-44
2023/10/23 07:46:53;;;;;;;;;7.00;3.33;;;;;12.52;71.66;100418.81;5038142;28;45399;-43
2023/10/23 07:49:18;;;;;;;;;1.33;1.00;;;;;12.51;71.60;100420.63;5037899;28;45373;-43
2023/10/23 07:51:44;;;;;;;;;1.00;1.00;;;;;12.55;71.83;100419.28;5037710;28;45378;-44
2023/10/23 07:54:10;;;;;;;;;7.00;4.00;;;;;12.59;71.57;100425.13;5037190;28;45364;-43
2023/10/23 07:56:35;;;;;;;;;6.67;3.00;;;;;12.56;71.92;100414.81;5037714;28;45476;-40
2023/10/23 07:59:01;;;;;;;;;9.00;3.67;;;;;12.62;71.34;100417.63;5037746;28;45411;-40
2023/10/23 08:01:26;;;;;;;;;5.00;3.00;;;;;12.65;71.36;100403.94;5037550;28;46045;-42
2023/10/23 08:03:51;;;;;;;;;4.67;2.33;;;;;12.67;71.03;100407.28;5037162;28;47049;-43
2023/10/23 08:06:17;;;;;;;;;1.00;1.00;;;;;12.63;71.32;100391.78;5036181;28;45361;-48
2023/10/23 08:08:44;;;;;;;;;2.33;2.00;;;;;12.73;70.96;100403.13;5037462;28;45453;-44
2023/10/23 08:11:11;;;;;;;;;7.00;3.33;;;;;12.68;71.22;100392.09;5037329;28;45468;-42
2023/10/23 08:13:38;;;;;;;;;3.67;2.00;;;;;12.77;70.98;100398.25;5019417;28;45533;-42
2023/10/23 08:16:04;;;;;;;;;6.00;3.33;;;;;12.80;70.36;100390.75;5037294;28;45454;-42
2023/10/23 08:18:29;;;;;;;;;4.33;3.00;;;;;12.83;70.76;100386.91;5037382;28;45469;-42
2023/10/23 08:20:55;;;;;;;;;1.33;1.33;;;;;12.89;70.88;100391.56;5037115;28;47320;-40
2023/10/23 08:23:20;;;;;;;;;3.67;3.00;;;;;12.89;70.99;100378.19;5037259;28;45451;-41
2023/10/23 08:25:45;;;;;;;;;5.33;3.33;;;;;12.93;70.48;100388.38;5037244;28;45318;-41
2023/10/23 08:28:11;;;;;;;;;3.00;3.00;;;;;12.99;70.40;100379.69;5037420;28;45408;-40
2023/10/23 08:30:37;;;;;;;;;5.33;3.00;;;;;13.04;70.32;100381.84;5036799;28;46924;-39
2023/10/23 08:33:03;;;;;;;;;4.00;4.00;;;;;13.10;70.13;100377.66;5036666;28;45301;-40
2023/10/23 08:35:29;;;;;;;;;3.00;2.00;;;;;13.10;70.01;100381.16;5037182;28;45320;-39
2023/10/23 08:37:54;;;;;;;;;3.33;2.00;;;;;13.11;70.15;100366.81;5036307;28;45541;-40
2023/10/23 08:40:23;;;;;;;;;3.00;1.67;;;;;13.17;69.88;100373.28;5036998;28;46156;-40
2023/10/23 08:42:48;;;;;;;;;6.00;3.00;;;;;13.18;70.08;100383.78;5036892;28;45383;-41
2023/10/23 08:45:17;;;;;;;;;3.00;2.67;;;;;13.18;69.96;100374.94;5036793;28;45432;-41
2023/10/23 08:47:43;;;;;;;;;2.00;2.00;;;;;13.19;69.82;100371.28;5036819;28;45403;-40
2023/10/23 08:50:09;;;;;;;;;4.67;2.00;;;;;13.22;69.87;100362.91;5036402;28;46038;-40
2023/10/23 08:52:44;;;;;;;;;4.00;3.00;;;;;13.22;69.84;100363.78;5036428;28;45538;-39
2023/10/23 08:55:13;;;;;;;;;5.67;3.33;;;;;13.20;69.50;100360.44;5034429;28;45350;-48
2023/10/23 08:57:42;;;;;;;;;4.67;4.67;;;;;13.21;69.37;100358.59;5036573;28;45498;-45
2023/10/23 09:00:08;;;;;;;;;6.33;2.00;;;;;13.21;69.33;100356.75;5036471;28;45443;-40
2023/10/23 09:02:34;;;;;;;;;2.33;1.00;;;;;13.23;69.36;100352.09;5036504;28;45430;-41
2023/10/23 09:04:59;;;;;;;;;3.00;1.67;;;;;13.24;69.45;100347.59;5023326;28;45222;-40
2023/10/23 09:07:25;;;;;;;;;1.00;1.00;;;;;13.15;68.63;100333.41;5016871;28;45284;-40
2023/10/23 09:09:50;;;;;;;;;3.00;1.00;;;;;13.25;69.34;100343.09;5016255;28;45500;-40
2023/10/23 09:12:33;;;;;;;;;2.67;2.00;;;;;13.25;68.74;100335.91;5016297;28;45371;-38
2023/10/23 09:15:12;;;;;;;;;2.33;2.33;;;;;13.21;68.77;100334.56;5016314;28;45479;-40
2023/10/23 09:17:38;;;;;;;;;4.67;1.00;;;;;13.17;68.79;100326.03;5015351;28;45599;-39
2023/10/23 09:20:26;;;;;;;;;2.00;0.00;;;;;13.22;68.61;100336.22;5015892;28;46430;-41
2023/10/23 09:22:52;;;;;;;;;3.33;1.00;;;;;13.18;68.76;100335.72;5016434;28;45344;-37
2023/10/23 09:25:22;;;;;;;;;1.33;1.33;;;;;13.18;68.94;100327.69;5015104;28;45471;-39
2023/10/23 09:27:48;;;;;;;;;3.00;1.00;;;;;13.21;69.02;100331.88;5016554;28;45525;-40
2023/10/23 09:30:20;;;;;;;;;6.33;1.00;;;;;13.25;69.08;100324.38;5015955;28;45400;-39
2023/10/23 09:32:54;;;;;;;;;2.33;1.00;;;;;13.29;69.42;100326.53;4998885;28;45381;-40
2023/10/23 09:35:23;;;;;;;;;3.00;2.33;;;;;13.33;69.21;100324.34;5016440;28;45368;-38
2023/10/23 09:37:49;;;;;;;;;5.67;3.67;;;;;13.26;69.58;100310.84;5016149;28;45404;-40
2023/10/23 09:40:16;;;;;;;;;4.00;2.67;;;;;13.30;69.90;100322.84;5015544;28;47351;-40
2023/10/23 09:42:42;;;;;;;;;3.00;2.00;;;;;13.30;69.67;100314.00;5015934;28;45488;-40
2023/10/23 09:45:09;;;;;;;;;3.00;3.00;;;;;13.32;69.87;100318.19;5017520;28;45400;-41
2023/10/23 09:47:37;;;;;;;;;1.00;1.00;;;;;13.34;70.00;100312.66;5022885;28;45195;-41
2023/10/23 09:50:03;;;;;;;;;1.33;1.33;;;;;13.31;70.56;100304.97;5022206;28;46373;-44
2023/10/23 09:52:32;;;;;;;;;3.67;1.67;;;;;13.36;70.19;100299.97;5022304;28;45417;-39
2023/10/23 09:55:00;;;;;;;;;2.00;2.00;;;;;13.42;71.11;100291.22;5022542;28;45678;-41
2023/10/23 09:57:36;;;;;;;;;6.67;2.00;;;;;13.42;70.74;100285.88;5022590;28;45568;-42
2023/10/23 10:00:13;;;;;;;;;3.00;1.33;;;;;13.47;71.59;100280.84;5022316;28;45449;-41
2023/10/23 10:02:49;;;;;;;;;3.00;2.00;;;;;13.45;71.34;100274.84;5022363;28;45377;-41
2023/10/23 10:05:20;;;;;;;;;1.33;1.33;;;;;13.45;71.87;100272.19;5036741;28;45423;-41
2023/10/23 10:07:59;;;;;;;;;2.00;1.00;;;;;13.46;72.35;100263.16;5042511;28;45191;-42
2023/10/23 10:10:26;;;;;;;;;4.00;4.00;;;;;13.48;72.14;100261.97;5040974;28;45400;-41
2023/10/23 10:12:55;;;;;;;;;3.00;3.00;;;;;13.50;72.70;100253.78;5042346;28;45436;-40
2023/10/23 10:15:22;;;;;;;;;2.67;2.67;;;;;13.53;72.50;100250.75;5042184;28;45381;-40
2023/10/23 10:17:49;;;;;;;;;2.00;2.00;;;;;13.57;72.58;100249.38;5042487;28;45464;-40
2023/10/23 10:20:18;;;;;;;;;4.67;3.00;;;;;13.64;72.25;100244.97;5041868;28;45436;-39
2023/10/23 10:22:47;;;;;;;;;4.00;3.33;;;;;13.66;71.98;100242.97;5042173;28;45336;-40
2023/10/23 10:25:13;;;;;;;;;4.33;4.00;;;;;13.68;71.99;100232.91;5042115;28;45466;-42
2023/10/23 10:27:39;;;;;;;;;2.33;2.00;;;;;13.74;72.07;100244.75;5042351;28;45423;-39
2023/10/23 10:30:05;;;;;;;;;4.67;3.33;;;;;13.73;72.48;100227.84;5041764;28;45372;-40
2023/10/23 10:32:35;;;;;;;;;7.00;5.00;;;;;13.82;72.14;100235.81;5040630;28;45367;-42
2023/10/23 10:35:07;;;;;;;;;10.00;4.00;;;;;13.87;72.71;100238.78;5041920;28;45219;-42
2023/10/23 10:37:32;;;;;;;;;3.67;3.00;;;;;13.85;72.15;100232.78;5036293;28;45830;-42
2023/10/23 10:39:58;;;;;;;;;3.00;2.00;;;;;13.88;72.77;100227.91;5028532;28;47018;-40
2023/10/23 10:42:28;;;;;;;;;3.67;3.00;;;;;13.93;72.74;100230.03;5038231;28;45250;-41
2023/10/23 10:44:54;;;;;;;;;2.33;2.33;;;;;13.92;72.40;100231.06;5038630;28;45532;-40
2023/10/23 10:47:21;;;;;;;;;4.67;2.00;;;;;13.85;73.19;100230.94;5038954;28;45428;-41
2023/10/23 10:49:47;;;;;;;;;3.00;2.00;;;;;13.77;73.19;100233.69;5038926;28;47384;-40
2023/10/23 10:52:26;;;;;;;;;3.00;3.00;;;;;13.70;73.35;100224.72;5038855;28;45343;-40
2023/10/23 10:54:55;;;;;;;;;7.00;3.00;;;;;13.69;73.73;100234.59;5039061;28;45372;-41
2023/10/23 10:57:20;;;;;;;;;7.00;3.00;;;;;13.64;74.01;100244.97;5035946;28;45371;-41
2023/10/23 10:59:46;;;;;;;;;4.67;3.00;;;;;13.56;74.39;100230.84;5035084;28;45642;-41
2023/10/23 11:02:11;;;;;;;;;5.67;4.00;;;;;13.54;74.67;100235.53;5035458;28;45519;-40
2023/10/23 11:04:36;;;;;;;;;2.00;2.00;;;;;13.53;75.65;100228.53;5034587;28;45481;-41
2023/10/23 11:07:02;;;;;;;;;2.67;2.67;;;;;13.44;75.12;100217.06;5034883;28;45622;-41
2023/10/23 11:09:27;;;;;;;;;2.00;2.00;;;;;13.32;74.73;100197.13;5035310;28;46400;-40
2023/10/23 11:11:57;;;;;;;;;5.67;4.00;;;;;13.34;76.47;100198.59;5035281;28;45423;-40
2023/10/23 11:14:24;;;;;;;;;3.67;3.67;;;;;13.35;75.86;100194.09;5033767;28;45443;-40
2023/10/23 11:16:50;;;;;;;;;3.00;3.00;;;;;13.33;76.90;100188.94;5035725;28;45313;-40
2023/10/23 11:19:16;;;;;;;;;6.67;3.00;;;;;13.26;76.94;100187.16;5037561;28;46227;-40
2023/10/23 11:21:41;;;;;;;;;7.00;3.33;;;;;13.20;78.09;100181.47;5036618;28;45472;-41